createdAt,value
2019-06-07T00:08:48.094Z,13.2
2019-06-07T00:18:48.271Z,12.9
2019-06-07T00:28:47.493Z,13.1
2019-06-07T00:38:46.725Z,12.6
2019-06-07T00:48:45.957Z,12.7
2019-06-07T00:58:45.171Z,12.5
2019-06-07T01:08:44.397Z,13.2
2019-06-07T01:18:46.707Z,12.5
2019-06-07T01:28:42.856Z,13
2019-06-07T01:38:42.077Z,12.7
2019-06-07T01:48:49.264Z,12.8
2019-06-07T01:58:40.526Z,13.1
2019-06-07T02:08:39.761Z,13.2
2019-06-07T02:18:56.126Z,12.6
2019-06-07T02:28:45.263Z,13
2019-06-07T02:38:37.960Z,12.8
2019-06-07T02:48:39.949Z,12.8
2019-06-07T02:58:41.353Z,12.7
2019-06-07T03:08:36.559Z,13.2
2019-06-07T03:18:36.204Z,12.9
2019-06-07T03:28:35.820Z,13.2
2019-06-07T03:38:34.758Z,13.6
2019-06-07T03:48:35.132Z,13.4
2019-06-07T03:58:36.601Z,14.5
2019-06-07T04:08:31.355Z,14.7
2019-06-07T04:18:30.557Z,14.2
2019-06-07T04:29:06.833Z,14.8
2019-06-07T04:38:29.407Z,14
2019-06-07T04:48:27.362Z,14.3
2019-06-07T04:58:26.591Z,14.4
2019-06-07T05:08:28.281Z,14
2019-06-07T05:18:25.039Z,14.1
2019-06-07T05:28:24.272Z,14.7
2019-06-07T05:38:23.497Z,13.8
2019-06-07T05:48:23.010Z,13.8
2019-06-07T05:58:21.943Z,14.5
2019-06-07T06:08:21.166Z,14.4
2019-06-07T06:18:20.398Z,14.1
2019-06-07T06:28:19.622Z,14.4
2019-06-07T06:38:18.843Z,14.6
2019-06-07T06:48:18.069Z,13.9
2019-06-07T06:58:17.306Z,14.7
2019-06-07T07:08:16.529Z,14.4
2019-06-07T07:18:15.776Z,14.2
2019-06-07T07:28:14.977Z,14.4
2019-06-07T07:38:14.199Z,13.9
2019-06-07T07:48:17.956Z,13.9
2019-06-07T07:58:12.660Z,14
2019-06-07T08:08:11.883Z,14.2
2019-06-07T08:18:11.120Z,14.5
2019-06-07T08:28:10.386Z,14.6
2019-06-07T08:38:29.578Z,14.2
2019-06-07T08:48:24.833Z,14.3
2019-06-07T08:58:08.933Z,14.4
2019-06-07T09:08:26.533Z,14.1
2019-06-07T09:28:14.087Z,14.4
2019-06-07T09:38:17.423Z,13.7
2019-06-07T09:48:10.029Z,13.8
2019-06-07T09:58:30.814Z,14.4
2019-06-07T10:08:15.927Z,14
2019-06-07T10:18:02.773Z,14.4
2019-06-07T10:28:01.802Z,14
2019-06-07T10:38:00.398Z,14.6
2019-06-07T10:47:59.551Z,14.7
2019-06-07T10:57:58.728Z,13.9
2019-06-07T11:08:00.585Z,14.3
2019-06-07T11:17:57.194Z,14.4
2019-06-07T11:27:56.418Z,14.3
2019-06-07T11:37:55.638Z,14.6
2019-06-07T11:47:54.867Z,14.4
2019-06-07T11:57:54.099Z,14
2019-06-07T12:07:53.326Z,14.1
2019-06-07T12:17:52.545Z,14.4
2019-06-07T12:27:51.828Z,14.5
2019-06-07T12:37:51.005Z,14.2
2019-06-07T12:47:50.227Z,13.8
2019-06-07T12:57:49.450Z,14.1
2019-06-07T13:07:48.678Z,14.3
2019-06-07T13:17:47.910Z,14.4
2019-06-07T13:27:47.132Z,14.2
2019-06-07T13:37:46.357Z,14.4
2019-06-07T13:47:45.585Z,13.8
2019-06-07T13:57:44.814Z,14.6
2019-06-07T14:07:44.040Z,14.7
2019-06-07T14:17:43.270Z,14.2
2019-06-07T14:27:42.494Z,14.4
2019-06-07T14:37:41.716Z,13.8
2019-06-07T14:47:40.944Z,14.4
2019-06-07T14:57:40.172Z,14.4
2019-06-07T15:07:40.411Z,14.2
2019-06-07T15:17:39.134Z,14.3
2019-06-07T15:27:38.007Z,13.8
2019-06-07T15:37:37.077Z,13.5
2019-06-07T15:47:36.323Z,13.2
2019-06-07T15:57:37.126Z,12.7
2019-06-07T16:07:36.161Z,13.1
2019-06-07T16:17:35.002Z,13.2
2019-06-07T16:27:34.366Z,12.5
2019-06-07T16:37:32.450Z,13.1
2019-06-07T16:47:31.681Z,13.1
2019-06-07T16:57:30.901Z,13
2019-06-07T17:07:30.135Z,12.9
2019-06-07T17:17:29.362Z,13.1
2019-06-07T17:27:28.591Z,13
2019-06-07T17:37:27.828Z,13.2
2019-06-07T17:47:27.055Z,12.7
2019-06-07T17:57:26.280Z,12.7
2019-06-07T18:07:25.503Z,13.2
2019-06-07T18:17:33.928Z,12.7
2019-06-07T18:27:23.966Z,12.5
2019-06-07T18:37:23.188Z,13
2019-06-07T18:47:22.422Z,13.2
2019-06-07T18:57:21.646Z,12.8
2019-06-07T19:07:20.875Z,12.9
2019-06-07T19:17:20.103Z,13
2019-06-07T19:27:19.339Z,13
2019-06-07T19:37:18.568Z,13
2019-06-07T19:47:17.839Z,12.7
2019-06-07T19:57:17.032Z,12.9
2019-06-07T20:07:16.247Z,12.8
2019-06-07T20:17:15.478Z,12.8
2019-06-07T20:27:14.706Z,12.5
2019-06-07T20:37:13.942Z,13.3
2019-06-07T20:47:13.178Z,13
2019-06-07T20:57:12.401Z,12.6
2019-06-07T21:09:01.618Z,13
2019-06-07T21:19:01.905Z,12.4
2019-06-07T21:29:01.219Z,13.1
2019-06-07T21:38:59.274Z,13.3
2019-06-07T21:48:58.497Z,13
2019-06-07T21:58:57.735Z,12.9
2019-06-07T22:08:56.964Z,13.2
2019-06-07T22:18:56.250Z,12.4
2019-06-07T22:28:55.564Z,12.5
2019-06-07T22:38:54.861Z,12.6
2019-06-07T22:48:54.169Z,13.1
2019-06-07T22:58:53.529Z,12.4
2019-06-07T23:08:52.751Z,13.1
2019-06-07T23:18:51.980Z,13
2019-06-07T23:28:51.213Z,12.8
2019-06-07T23:38:50.436Z,12.8
2019-06-07T23:48:49.664Z,12.5
2019-06-07T23:58:48.896Z,12.9
